Time;durP1;ratioP1;P1;durP2;ratioP2;P2;SDS_P1;SDS_P2;PMS_P1;PMS_P2;Temp;Humidity;BMP_temperature;BMP_pressure;BME280_temperature;BME280_humidity;BME280_pressure;Samples;Min_cycle;Max_cycle;Signal;HPM_P1;HPM_P2
2022/08/29 00:00:37;;;;;;;7.97;6.57;;;22.60;99.90;;;;;;6212764;23;20001;-70
2022/08/29 00:03:05;;;;;;;7.97;6.65;;;22.60;99.90;;;;;;6212394;23;20028;-69
2022/08/29 00:05:34;;;;;;;9.77;6.20;;;22.60;99.90;;;;;;6212432;23;20013;-70
2022/08/29 00:08:01;;;;;;;6.57;5.97;;;22.60;99.90;;;;;;6212055;23;20459;-70
2022/08/29 00:10:29;;;;;;;7.68;6.20;;;22.50;99.90;;;;;;6212569;23;20005;-70
2022/08/29 00:12:55;;;;;;;10.40;6.70;;;22.60;99.90;;;;;;6213759;23;20417;-70
2022/08/29 00:15:22;;;;;;;7.10;5.80;;;22.50;99.90;;;;;;6213898;23;20005;-70
2022/08/29 00:17:48;;;;;;;9.50;6.00;;;22.60;99.90;;;;;;6213999;23;20016;-69
2022/08/29 00:20:19;;;;;;;7.25;6.30;;;22.50;99.90;;;;;;6214749;23;20005;-70
2022/08/29 00:22:45;;;;;;;10.10;6.57;;;22.50;99.90;;;;;;6212652;23;20028;-70
2022/08/29 00:25:12;;;;;;;8.52;6.53;;;22.50;99.90;;;;;;6213904;23;20012;-69
2022/08/29 00:27:38;;;;;;;6.82;5.93;;;22.50;99.90;;;;;;6214106;23;20008;-69
2022/08/29 00:30:05;;;;;;;7.50;6.10;;;22.50;99.90;;;;;;6214281;23;20000;-70
2022/08/29 00:32:33;;;;;;;6.32;5.72;;;22.40;99.90;;;;;;6212469;23;20072;-70
2022/08/29 00:35:10;;;;;;;7.60;6.13;;;22.40;99.90;;;;;;6214332;23;20028;-70
2022/08/29 00:37:36;;;;;;;6.90;6.00;;;22.50;99.90;;;;;;6214147;23;20036;-69
2022/08/29 00:40:04;;;;;;;7.90;6.63;;;22.40;99.90;;;;;;6214306;23;20147;-70
2022/08/29 00:42:30;;;;;;;9.52;6.28;;;22.40;99.90;;;;;;6213879;23;20008;-70
2022/08/29 00:44:56;;;;;;;6.60;5.88;;;22.50;99.90;;;;;;6212208;23;20009;-70
2022/08/29 00:47:28;;;;;;;7.30;6.07;;;22.50;99.90;;;;;;6212690;23;20549;-69
2022/08/29 00:49:56;;;;;;;11.23;5.78;;;22.50;99.90;;;;;;6214337;23;20421;-70
2022/08/29 00:52:31;;;;;;;7.10;5.53;;;22.50;99.90;;;;;;6211997;23;20461;-70
2022/08/29 00:54:58;;;;;;;8.07;5.65;;;22.50;99.90;;;;;;6212506;23;20004;-70
2022/08/29 00:57:27;;;;;;;6.07;5.47;;;22.50;99.90;;;;;;6213718;23;20004;-70
2022/08/29 00:59:53;;;;;;;7.18;5.57;;;22.50;99.90;;;;;;6214177;23;20009;-70
2022/08/29 01:02:19;;;;;;;8.57;5.47;;;22.50;99.90;;;;;;6213555;23;20004;-70
2022/08/29 01:04:45;;;;;;;9.75;5.93;;;22.50;99.90;;;;;;6214025;23;20062;-70
2022/08/29 01:07:11;;;;;;;8.55;5.60;;;22.50;99.90;;;;;;6213666;23;20012;-70
2022/08/29 01:09:38;;;;;;;7.57;5.78;;;22.50;99.90;;;;;;6213968;23;20007;-69
2022/08/29 01:12:15;;;;;;;7.95;6.10;;;22.50;99.90;;;;;;6211890;23;20009;-70
2022/08/29 01:14:54;;;;;;;8.65;6.22;;;22.50;99.90;;;;;;6212148;23;20084;-70
2022/08/29 01:17:23;;;;;;;9.57;5.47;;;22.50;99.90;;;;;;6213685;23;20443;-70
2022/08/29 01:19:55;;;;;;;9.45;5.40;;;22.50;99.90;;;;;;6213631;23;20010;-70
2022/08/29 01:22:47;;;;;;;8.02;5.75;;;22.60;99.90;;;;;;6213249;23;20231;-70
2022/08/29 01:25:18;;;;;;;7.25;5.60;;;22.60;99.90;;;;;;6213888;23;20062;-70
2022/08/29 01:27:50;;;;;;;6.38;5.63;;;22.70;99.90;;;;;;6213544;23;20463;-70
2022/08/29 01:30:16;;;;;;;8.10;5.47;;;22.80;99.90;;;;;;6213922;23;20059;-70
2022/08/29 01:32:42;;;;;;;7.80;5.53;;;22.80;99.90;;;;;;6213077;23;20001;-70
2022/08/29 01:35:08;;;;;;;7.03;5.45;;;22.90;99.90;;;;;;6213448;23;20000;-69
2022/08/29 01:37:36;;;;;;;7.95;5.10;;;22.90;99.90;;;;;;6213119;23;19988;-69
2022/08/29 01:40:03;;;;;;;7.75;5.30;;;22.90;99.90;;;;;;6213555;23;20001;-69
2022/08/29 01:42:30;;;;;;;7.60;4.78;;;23.00;99.90;;;;;;6213296;23;20011;-69
2022/08/29 01:44:59;;;;;;;7.53;5.13;;;22.90;99.90;;;;;;6213637;23;20079;-69
2022/08/29 01:47:30;;;;;;;7.72;5.00;;;23.00;99.90;;;;;;6213371;23;20005;-69
2022/08/29 01:49:56;;;;;;;5.60;4.85;;;23.00;99.90;;;;;;6213305;23;20003;-69
2022/08/29 01:52:22;;;;;;;9.07;5.15;;;23.00;99.90;;;;;;6213859;23;19985;-70
2022/08/29 01:54:48;;;;;;;5.75;5.13;;;23.00;99.90;;;;;;6213019;23;20036;-70
2022/08/29 01:57:15;;;;;;;6.80;5.28;;;23.00;99.90;;;;;;6213313;23;20339;-70
2022/08/29 01:59:42;;;;;;;9.35;5.10;;;23.00;99.90;;;;;;6213513;23;20020;-70
2022/08/29 02:02:18;;;;;;;6.78;5.75;;;23.00;99.90;;;;;;6213100;23;20000;-70
2022/08/29 02:04:46;;;;;;;6.30;5.32;;;23.00;99.90;;;;;;6213669;23;19996;-71
2022/08/29 02:07:13;;;;;;;5.32;4.82;;;23.10;99.90;;;;;;6211648;23;20067;-71
2022/08/29 02:09:39;;;;;;;8.00;5.68;;;23.10;99.90;;;;;;6212729;23;20031;-71
2022/08/29 02:12:06;;;;;;;8.25;5.38;;;23.10;99.90;;;;;;6213126;23;20420;-71
2022/08/29 02:14:33;;;;;;;7.65;5.60;;;23.10;99.90;;;;;;6212943;23;19996;-71
2022/08/29 02:17:01;;;;;;;10.43;5.30;;;23.10;99.90;;;;;;6213091;23;20440;-71
2022/08/29 02:19:27;;;;;;;11.27;5.30;;;23.10;99.90;;;;;;6213102;23;20008;-71
2022/08/29 02:21:53;;;;;;;6.22;5.63;;;23.10;99.90;;;;;;6213386;23;20424;-71
2022/08/29 02:24:18;;;;;;;7.78;5.95;;;23.10;99.90;;;;;;6212693;23;20012;-71
2022/08/29 02:26:44;;;;;;;7.97;5.85;;;23.00;99.90;;;;;;6213423;23;20230;-71
2022/08/29 02:29:11;;;;;;;5.60;5.03;;;23.00;99.90;;;;;;6210818;23;20008;-71
2022/08/29 02:31:39;;;;;;;9.13;6.05;;;23.00;99.90;;;;;;6213295;23;20013;-71
2022/08/29 02:34:06;;;;;;;10.48;5.70;;;23.00;99.90;;;;;;6212047;23;20008;-71
2022/08/29 02:36:31;;;;;;;9.15;5.32;;;23.00;99.90;;;;;;6213378;23;20012;-71
2022/08/29 02:38:57;;;;;;;7.05;5.70;;;23.00;99.90;;;;;;6211037;23;20340;-71
2022/08/29 02:41:23;;;;;;;9.30;6.15;;;23.00;99.90;;;;;;6213368;23;20055;-71
2022/08/29 02:43:48;;;;;;;6.35;5.70;;;23.00;99.90;;;;;;6212832;23;20432;-71
2022/08/29 02:46:17;;;;;;;6.13;5.43;;;23.00;99.90;;;;;;6212790;23;20017;-71
2022/08/29 02:48:44;;;;;;;5.72;5.22;;;23.00;99.90;;;;;;6212741;23;20459;-71
2022/08/29 02:51:16;;;;;;;8.82;6.00;;;23.00;99.90;;;;;;6213236;23;20008;-71
2022/08/29 02:53:42;;;;;;;9.20;6.25;;;22.90;99.90;;;;;;6210173;23;20367;-71
2022/08/29 02:56:08;;;;;;;6.32;5.72;;;22.90;99.90;;;;;;6213164;23;20004;-71
2022/08/29 02:58:34;;;;;;;8.85;5.45;;;23.00;99.90;;;;;;6212596;23;20007;-71
2022/08/29 03:01:00;;;;;;;8.00;6.30;;;23.00;99.90;;;;;;6213285;23;20032;-71
2022/08/29 03:03:26;;;;;;;9.77;5.65;;;23.10;99.90;;;;;;6212472;23;20024;-71
2022/08/29 03:05:53;;;;;;;8.95;5.93;;;23.10;99.90;;;;;;6212569;23;20483;-71
2022/08/29 03:08:19;;;;;;;8.25;6.78;;;23.10;99.90;;;;;;6212308;23;20001;-71
2022/08/29 03:10:45;;;;;;;8.18;5.95;;;23.10;99.90;;;;;;6212538;23;20027;-71
2022/08/29 03:13:11;;;;;;;6.63;5.95;;;23.10;99.90;;;;;;6210714;23;20277;-71
2022/08/29 03:15:38;;;;;;;9.68;6.50;;;23.10;99.90;;;;;;6213270;23;20092;-71
2022/08/29 03:18:03;;;;;;;11.55;6.25;;;23.10;99.90;;;;;;6212307;23;20028;-71
2022/08/29 03:20:29;;;;;;;6.93;6.22;;;23.10;99.90;;;;;;6212726;23;20420;-71
2022/08/29 03:22:56;;;;;;;9.15;5.90;;;23.10;99.90;;;;;;6212275;23;19997;-71
2022/08/29 03:25:22;;;;;;;8.48;5.90;;;23.10;99.90;;;;;;6212948;23;20079;-71
2022/08/29 03:27:48;;;;;;;8.02;6.40;;;23.10;99.90;;;;;;6210617;23;20438;-71
2022/08/29 03:30:16;;;;;;;9.35;5.82;;;23.10;99.90;;;;;;6213105;23;20028;-71
2022/08/29 03:32:41;;;;;;;8.75;5.88;;;23.10;99.90;;;;;;6211213;23;20000;-71
2022/08/29 03:35:10;;;;;;;7.07;6.38;;;23.10;99.90;;;;;;6212869;23;20005;-70
2022/08/29 03:37:35;;;;;;;8.18;6.18;;;23.10;99.90;;;;;;6212377;23;20039;-70
2022/08/29 03:40:04;;;;;;;6.70;6.00;;;23.10;99.90;;;;;;6212651;23;19997;-71
2022/08/29 03:42:29;;;;;;;8.10;5.95;;;23.00;99.90;;;;;;6212120;23;20028;-71
2022/08/29 03:44:55;;;;;;;6.30;5.63;;;23.00;99.90;;;;;;6210857;23;20136;-70
2022/08/29 03:47:21;;;;;;;7.15;5.75;;;23.10;99.90;;;;;;6214492;23;20012;-70
2022/08/29 03:49:46;;;;;;;7.40;6.00;;;23.10;99.90;;;;;;6212955;23;20432;-71
2022/08/29 03:52:12;;;;;;;9.38;6.32;;;23.10;99.90;;;;;;6212582;23;20035;-71
2022/08/29 03:54:38;;;;;;;6.32;5.72;;;23.10;99.90;;;;;;6213001;23;20562;-70
2022/08/29 03:57:05;;;;;;;7.75;6.00;;;23.10;99.90;;;;;;6214458;23;20032;-71
2022/08/29 03:59:31;;;;;;;8.45;6.30;;;23.10;99.90;;;;;;6214111;23;20008;-71
2022/08/29 04:01:57;;;;;;;13.07;6.55;;;23.10;99.90;;;;;;6214526;23;20520;-71
2022/08/29 04:07:08;;;;;;;7.75;6.45;;;23.00;99.90;;;;;;6214153;23;20063;-71
2022/08/29 04:09:35;;;;;;;8.07;6.55;;;23.00;99.90;;;;;;6214488;23;20001;-71
2022/08/29 04:12:01;;;;;;;8.63;6.82;;;23.00;99.90;;;;;;6214460;23;20000;-71
2022/08/29 04:14:28;;;;;;;6.80;6.10;;;23.00;99.90;;;;;;6214252;23;19997;-70
2022/08/29 04:16:54;;;;;;;11.45;7.32;;;23.00;99.90;;;;;;6212685;23;20039;-71
2022/08/29 04:19:20;;;;;;;7.78;6.70;;;23.00;99.90;;;;;;6212068;23;20351;-71
2022/08/29 04:21:47;;;;;;;7.85;6.32;;;23.00;99.90;;;;;;6214525;23;20028;-71
2022/08/29 04:24:14;;;;;;;9.98;6.78;;;23.00;99.90;;;;;;6213818;23;20471;-71
2022/08/29 04:26:40;;;;;;;9.68;6.85;;;23.00;99.90;;;;;;6212798;23;20504;-70
2022/08/29 04:29:09;;;;;;;9.23;6.55;;;23.00;99.90;;;;;;6212430;23;20245;-70
2022/08/29 04:31:35;;;;;;;7.85;6.60;;;22.90;99.90;;;;;;6214476;23;20052;-70
2022/08/29 04:34:02;;;;;;;11.05;6.53;;;22.90;99.90;;;;;;6213353;23;20086;-70
2022/08/29 04:36:28;;;;;;;7.53;6.75;;;23.00;99.90;;;;;;6214558;23;20005;-70
2022/08/29 04:38:54;;;;;;;9.15;7.10;;;23.00;99.90;;;;;;6213329;23;20011;-70
2022/08/29 04:41:20;;;;;;;8.40;6.95;;;23.00;99.90;;;;;;6214304;23;20332;-71
2022/08/29 04:43:46;;;;;;;12.38;6.95;;;23.00;99.90;;;;;;6213719;23;20032;-70
2022/08/29 04:46:16;;;;;;;8.30;6.78;;;23.10;99.90;;;;;;6214319;23;20036;-70
2022/08/29 04:48:42;;;;;;;13.77;7.07;;;23.10;99.90;;;;;;6212169;23;20001;-70
2022/08/29 04:51:09;;;;;;;7.53;6.70;;;23.10;99.90;;;;;;6214320;23;20036;-70
2022/08/29 04:53:36;;;;;;;7.88;6.63;;;23.10;99.90;;;;;;6212939;23;20432;-70
2022/08/29 04:56:06;;;;;;;8.00;6.38;;;23.20;99.90;;;;;;6214244;23;20059;-70
2022/08/29 04:58:34;;;;;;;8.73;6.65;;;23.20;99.90;;;;;;6213614;23;20016;-70
2022/08/29 05:01:00;;;;;;;8.50;6.85;;;23.20;99.90;;;;;;6212568;23;20598;-70
2022/08/29 05:03:25;;;;;;;8.10;7.30;;;23.20;99.90;;;;;;6213686;23;19997;-70
2022/08/29 05:06:00;;;;;;;11.02;7.00;;;23.20;99.90;;;;;;6214139;23;20015;-70
2022/08/29 05:08:27;;;;;;;8.95;6.60;;;23.30;99.90;;;;;;6213736;23;20004;-70
2022/08/29 05:10:53;;;;;;;8.40;7.10;;;23.30;99.90;;;;;;6213418;23;20131;-70
2022/08/29 05:13:19;;;;;;;10.48;7.20;;;23.30;99.90;;;;;;6213140;23;20424;-70
2022/08/29 05:15:45;;;;;;;9.60;6.10;;;23.40;99.90;;;;;;6214184;23;20011;-70
2022/08/29 05:18:14;;;;;;;9.68;6.57;;;23.40;99.90;;;;;;6213631;23;20012;-70
2022/08/29 05:20:42;;;;;;;9.60;7.68;;;23.40;99.90;;;;;;6214254;23;20024;-71
2022/08/29 05:23:08;;;;;;;6.95;6.30;;;23.40;99.90;;;;;;6213486;23;20007;-70
2022/08/29 05:25:34;;;;;;;7.15;6.50;;;23.40;99.90;;;;;;6212184;23;20019;-70
2022/08/29 05:28:00;;;;;;;11.20;6.93;;;23.50;99.90;;;;;;6213263;23;20000;-71
2022/08/29 05:30:27;;;;;;;11.98;6.63;;;23.50;99.90;;;;;;6213895;23;20130;-71
2022/08/29 05:32:53;;;;;;;12.50;7.20;;;23.60;99.90;;;;;;6211632;23;20011;-71
2022/08/29 05:35:20;;;;;;;9.10;6.88;;;23.60;99.90;;;;;;6213999;23;19997;-71
2022/08/29 05:37:46;;;;;;;8.15;6.70;;;23.60;99.90;;;;;;6213370;23;20011;-71
2022/08/29 05:40:11;;;;;;;9.65;7.30;;;23.70;99.90;;;;;;6213744;23;20001;-71
2022/08/29 05:42:38;;;;;;;8.02;7.05;;;23.70;99.90;;;;;;6213537;23;20420;-71
2022/08/29 05:45:05;;;;;;;11.00;6.63;;;23.80;99.90;;;;;;6213442;23;20215;-70
2022/08/29 05:47:31;;;;;;;7.18;6.35;;;23.90;99.90;;;;;;6213350;23;20013;-71
2022/08/29 05:49:57;;;;;;;9.75;7.10;;;23.90;99.90;;;;;;6211516;23;20016;-70
2022/08/29 05:52:23;;;;;;;8.75;6.90;;;24.00;99.90;;;;;;6213363;23;20005;-71
2022/08/29 05:54:49;;;;;;;7.55;6.90;;;24.10;99.90;;;;;;6213429;23;20099;-71
2022/08/29 05:57:18;;;;;;;7.68;6.95;;;24.20;99.90;;;;;;6213242;23;20001;-71
2022/08/29 05:59:45;;;;;;;8.00;6.47;;;24.30;99.90;;;;;;6213730;23;20030;-72
2022/08/29 06:02:12;;;;;;;9.38;6.45;;;24.30;99.90;;;;;;6211919;23;20011;-71
2022/08/29 06:04:38;;;;;;;7.18;6.47;;;24.40;99.90;;;;;;6213106;23;20042;-71
2022/08/29 06:07:05;;;;;;;9.93;6.50;;;24.50;99.90;;;;;;6211639;23;20340;-71
2022/08/29 06:09:31;;;;;;;8.93;6.93;;;24.60;99.90;;;;;;6212449;23;20147;-70
2022/08/29 06:11:57;;;;;;;8.05;6.30;;;24.70;99.90;;;;;;6213359;23;20008;-71
2022/08/29 06:14:23;;;;;;;8.57;5.88;;;24.80;99.90;;;;;;6213267;23;20003;-75
2022/08/29 06:16:50;;;;;;;10.25;6.03;;;24.90;99.90;;;;;;6213522;23;20486;-70
2022/08/29 06:19:16;;;;;;;6.82;6.15;;;25.00;99.90;;;;;;6213169;23;20031;-70
2022/08/29 06:21:42;;;;;;;7.07;6.15;;;25.00;99.90;;;;;;6211281;23;20420;-71
2022/08/29 06:24:07;;;;;;;9.35;6.13;;;25.10;99.90;;;;;;6213029;23;20425;-71
2022/08/29 06:26:34;;;;;;;7.85;6.30;;;25.20;99.90;;;;;;6213646;23;20087;-71
2022/08/29 06:29:03;;;;;;;8.63;6.40;;;25.20;99.90;;;;;;6212460;23;20008;-71
2022/08/29 06:31:29;;;;;;;9.82;6.20;;;25.30;99.90;;;;;;6213442;23;20005;-71
2022/08/29 06:33:58;;;;;;;7.38;5.88;;;25.30;99.90;;;;;;6212982;23;20001;-71
2022/08/29 06:36:25;;;;;;;8.23;5.97;;;25.40;99.90;;;;;;6213227;23;20031;-70
2022/08/29 06:38:51;;;;;;;8.15;6.43;;;25.40;99.90;;;;;;6212671;23;20004;-73
2022/08/29 06:41:18;;;;;;;7.22;6.30;;;25.40;99.90;;;;;;6213094;23;20035;-71
2022/08/29 06:43:44;;;;;;;11.55;6.00;;;25.50;99.90;;;;;;6212832;23;20001;-71
2022/08/29 06:46:31;;;;;;;9.52;6.10;;;25.50;99.90;;;;;;6213260;23;20047;-71
2022/08/29 06:48:58;;;;;;;6.95;5.65;;;25.60;99.90;;;;;;6212311;23;20000;-71
2022/08/29 06:51:25;;;;;;;6.45;5.95;;;25.70;99.90;;;;;;6213440;23;20012;-71
2022/08/29 06:53:51;;;;;;;8.95;5.63;;;25.70;99.90;;;;;;6211197;23;20490;-71
2022/08/29 06:56:17;;;;;;;6.35;5.80;;;25.60;99.90;;;;;;6213355;23;20020;-71
2022/08/29 06:58:43;;;;;;;6.70;5.90;;;25.60;99.90;;;;;;6212847;23;19997;-70
2022/08/29 07:01:12;;;;;;;8.52;6.20;;;25.60;99.90;;;;;;6212616;23;20011;-71
2022/08/29 07:03:38;;;;;;;6.75;6.00;;;25.50;99.90;;;;;;6212700;23;19996;-71
2022/08/29 07:06:04;;;;;;;7.32;6.13;;;25.50;99.90;;;;;;6212679;23;20012;-71
2022/08/29 07:08:31;;;;;;;7.82;5.97;;;25.50;99.90;;;;;;6212854;23;20443;-71
2022/08/29 07:10:56;;;;;;;7.22;6.35;;;25.40;99.90;;;;;;6212811;23;20064;-70
2022/08/29 07:13:22;;;;;;;7.55;6.20;;;25.40;99.90;;;;;;6212573;23;20087;-71
2022/08/29 07:15:48;;;;;;;14.93;6.38;;;25.50;99.90;;;;;;6213178;23;20433;-71
2022/08/29 07:18:14;;;;;;;9.43;6.15;;;25.50;99.90;;;;;;6212172;23;20348;-71
2022/08/29 07:20:40;;;;;;;6.07;5.50;;;25.50;99.90;;;;;;6212920;23;20335;-70
2022/08/29 07:23:07;;;;;;;7.45;6.03;;;25.60;99.90;;;;;;6215975;23;20003;-70
2022/08/29 07:25:33;;;;;;;7.20;6.10;;;25.70;99.90;;;;;;6214727;23;20428;-70
2022/08/29 07:27:59;;;;;;;8.35;5.93;;;25.70;99.90;;;;;;6215894;23;19997;-70
2022/08/29 07:30:25;;;;;;;6.32;5.63;;;25.70;99.90;;;;;;6214706;23;20009;-70
2022/08/29 07:32:51;;;;;;;6.43;5.75;;;25.80;99.90;;;;;;6214467;23;20321;-71
2022/08/29 07:35:18;;;;;;;12.80;6.20;;;25.80;99.90;;;;;;6214724;23;20058;-71
2022/08/29 07:37:44;;;;;;;8.25;5.60;;;25.80;99.90;;;;;;6213904;23;20013;-71
2022/08/29 07:40:18;;;;;;;9.50;5.97;;;25.90;99.90;;;;;;6215741;23;20001;-71
2022/08/29 07:42:44;;;;;;;6.70;5.57;;;25.90;99.90;;;;;;6216039;23;20008;-71
2022/08/29 07:45:11;;;;;;;6.82;5.57;;;26.00;99.90;;;;;;6216155;23;20004;-71
2022/08/29 07:47:37;;;;;;;6.00;5.40;;;26.00;99.90;;;;;;6214461;23;20005;-71
2022/08/29 07:50:06;;;;;;;7.40;6.15;;;26.10;99.90;;;;;;6214609;23;20008;-71
2022/08/29 07:52:32;;;;;;;6.97;6.00;;;26.10;99.90;;;;;;6214290;23;20008;-71
2022/08/29 07:54:58;;;;;;;8.35;6.03;;;26.20;99.90;;;;;;6215525;23;20416;-71
2022/08/29 07:57:24;;;;;;;7.35;6.03;;;26.20;99.90;;;;;;6215311;23;20034;-71
2022/08/29 07:59:50;;;;;;;10.68;5.95;;;26.30;99.90;;;;;;6214529;23;20059;-71
2022/08/29 08:02:16;;;;;;;43.90;7.50;;;26.30;99.90;;;;;;6215879;23;20059;-73
2022/08/29 08:04:42;;;;;;;6.13;5.50;;;26.40;99.90;;;;;;6216263;23;20001;-71
2022/08/29 08:07:09;;;;;;;7.13;5.15;;;26.50;99.90;;;;;;6215735;23;20020;-71
2022/08/29 08:09:35;;;;;;;5.65;5.15;;;26.60;99.90;;;;;;6215964;23;20009;-71
2022/08/29 08:12:02;;;;;;;5.97;5.40;;;26.70;99.90;;;;;;6215532;23;20432;-71
2022/08/29 08:14:27;;;;;;;6.30;5.57;;;26.70;99.90;;;;;;6215800;23;20027;-71
2022/08/29 08:16:53;;;;;;;8.38;5.53;;;26.80;99.90;;;;;;6215955;23;20432;-71
2022/08/29 08:19:19;;;;;;;5.72;4.90;;;26.90;99.90;;;;;;6214227;23;20433;-71
2022/08/29 08:21:45;;;;;;;5.95;5.15;;;26.90;99.90;;;;;;6215924;23;20440;-71
2022/08/29 08:24:10;;;;;;;7.55;5.25;;;27.00;99.90;;;;;;6215463;23;20152;-71
2022/08/29 08:26:36;;;;;;;9.80;4.80;;;27.10;99.90;;;;;;6214523;23;20012;-71
2022/08/29 08:29:03;;;;;;;6.95;5.15;;;27.10;99.90;;;;;;6215323;23;20071;-71
2022/08/29 08:31:29;;;;;;;5.45;4.60;;;27.20;99.90;;;;;;6215785;23;20000;-71
2022/08/29 08:33:55;;;;;;;7.90;4.95;;;27.20;99.90;;;;;;6213545;23;20456;-71
2022/08/29 08:36:30;;;;;;;5.10;4.60;;;27.30;99.90;;;;;;6214568;23;20021;-71
2022/08/29 08:38:58;;;;;;;5.88;4.53;;;27.40;99.90;;;;;;6213909;23;20039;-71
2022/08/29 08:41:38;;;;;;;5.25;4.75;;;27.40;99.90;;;;;;6214382;23;20502;-71
2022/08/29 08:44:27;;;;;;;10.63;4.65;;;27.50;99.90;;;;;;6212528;23;20009;-71
2022/08/29 08:46:57;;;;;;;6.93;4.78;;;27.50;99.90;;;;;;6192686;23;20011;-71
2022/08/29 08:49:49;;;;;;;5.78;4.78;;;27.60;99.90;;;;;;6213939;23;20000;-71
2022/08/29 08:52:27;;;;;;;10.02;5.20;;;27.70;99.90;;;;;;6213631;23;20027;-71
2022/08/29 08:55:07;;;;;;;5.50;4.90;;;27.80;99.90;;;;;;6214164;23;20007;-71
2022/08/29 08:57:43;;;;;;;5.30;4.78;;;27.80;99.90;;;;;;6213999;23;20496;-71
2022/08/29 09:00:11;;;;;;;7.25;4.75;;;27.90;99.90;;;;;;6214188;23;20001;-71
2022/08/29 09:03:14;;;;;;;5.25;4.75;;;28.00;99.90;;;;;;6214091;23;20131;-71
2022/08/29 09:06:14;;;;;;;5.03;4.55;;;28.10;99.90;;;;;;6213628;23;20464;-71
2022/08/29 09:08:43;;;;;;;5.60;4.88;;;28.30;99.90;;;;;;6213910;23;20011;-71
2022/08/29 09:11:11;;;;;;;4.95;4.45;;;28.40;99.90;;;;;;6213320;23;20436;-71
2022/08/29 09:13:55;;;;;;;5.32;4.60;;;28.50;99.90;;;;;;6212213;23;20008;-71
2022/08/29 09:16:39;;;;;;;5.80;5.20;;;28.50;99.90;;;;;;6214163;23;20000;-71
2022/08/29 09:19:08;;;;;;;5.93;4.85;;;28.60;99.90;;;;;;6213686;23;20008;-71
2022/08/29 09:21:50;;;;;;;5.38;4.57;;;28.70;99.90;;;;;;6213770;23;20008;-71
2022/08/29 09:24:29;;;;;;;7.55;4.78;;;28.80;99.90;;;;;;6213425;23;20004;-71
2022/08/29 09:26:55;;;;;;;5.45;4.70;;;29.00;99.90;;;;;;6214093;23;20012;-71
2022/08/29 09:29:26;;;;;;;5.85;4.43;;;29.10;99.90;;;;;;6213227;23;20025;-71
2022/08/29 09:32:12;;;;;;;4.53;4.03;;;29.10;99.90;;;;;;6214308;23;20001;-71
2022/08/29 09:34:45;;;;;;;7.53;4.50;;;29.20;99.90;;;;;;6212196;23;20001;-72
2022/08/29 09:37:30;;;;;;;4.18;3.78;;;29.40;99.90;;;;;;6213241;23;20036;-71
2022/08/29 09:40:16;;;;;;;5.32;4.13;;;29.40;99.90;;;;;;6213608;23;20001;-71
2022/08/29 09:42:50;;;;;;;4.82;4.32;;;29.60;99.90;;;;;;6211828;23;20344;-71
2022/08/29 09:45:23;;;;;;;4.95;3.80;;;29.70;99.90;;;;;;6213760;23;20079;-71
2022/08/29 09:48:13;;;;;;;7.25;4.47;;;29.80;99.90;;;;;;6213151;23;20083;-71
2022/08/29 09:50:38;;;;;;;4.20;3.90;;;29.90;99.90;;;;;;6195209;23;20028;-71
2022/08/29 09:53:04;;;;;;;4.95;4.30;;;30.00;98.90;;;;;;6213060;23;20432;-71
2022/08/29 09:55:37;;;;;;;19.38;4.88;;;30.10;99.50;;;;;;6213334;23;21010;-71
2022/08/29 09:58:31;;;;;;;7.53;4.10;;;30.20;99.60;;;;;;6213296;23;20008;-71
2022/08/29 10:01:03;;;;;;;12.30;4.22;;;30.30;98.60;;;;;;6212081;23;20055;-71
2022/08/29 10:03:33;;;;;;;5.90;3.88;;;30.30;97.80;;;;;;6211648;23;20314;-71
2022/08/29 10:06:13;;;;;;;6.85;4.20;;;30.20;97.10;;;;;;6213635;23;20013;-71
2022/08/29 10:08:40;;;;;;;4.45;4.05;;;30.30;98.10;;;;;;6212663;23;19996;-71
2022/08/29 10:11:40;;;;;;;5.97;4.40;;;30.30;98.80;;;;;;6213344;23;20008;-71
2022/08/29 10:14:12;;;;;;;7.55;4.22;;;30.20;98.90;;;;;;6196915;23;20005;-70
2022/08/29 10:16:55;;;;;;;4.80;3.95;;;30.20;99.30;;;;;;6213471;23;20005;-72
2022/08/29 10:19:26;;;;;;;3.78;3.47;;;30.30;99.00;;;;;;6213051;23;20009;-73
2022/08/29 10:22:03;;;;;;;5.15;3.63;;;30.50;97.60;;;;;;6211801;23;20008;-70
2022/08/29 10:25:12;;;;;;;6.05;4.00;;;30.60;97.10;;;;;;6211201;23;20447;-71
2022/08/29 10:27:59;;;;;;;87.22;7.25;;;30.20;98.50;;;;;;6091708;23;20041;-72
2022/08/29 10:30:53;;;;;;;4.68;3.63;;;30.10;98.30;;;;;;6211436;23;20091;-71
2022/08/29 10:33:22;;;;;;;5.18;3.92;;;30.10;97.90;;;;;;6212966;23;20487;-73
2022/08/29 10:36:06;;;;;;;8.57;4.40;;;30.00;98.20;;;;;;6213089;23;20070;-73
2022/08/29 10:38:38;;;;;;;8.05;4.32;;;29.80;98.80;;;;;;6212794;23;20443;-71
2022/08/29 10:41:12;;;;;;;11.57;4.40;;;29.50;99.30;;;;;;6213095;23;20007;-74
2022/08/29 10:43:43;;;;;;;6.60;4.63;;;29.40;99.70;;;;;;6212533;23;20059;-71
2022/08/29 10:46:20;;;;;;;5.00;4.50;;;29.20;99.90;;;;;;6213168;23;20004;-73
2022/08/29 10:49:23;;;;;;;5.50;4.18;;;29.20;99.90;;;;;;6210793;23;20005;-73
2022/08/29 10:51:55;;;;;;;6.18;4.30;;;29.10;99.90;;;;;;6213473;23;20084;-73
2022/08/29 10:54:39;;;;;;;5.45;4.15;;;29.20;99.90;;;;;;6212742;23;20026;-73
2022/08/29 10:57:07;;;;;;;4.25;3.83;;;29.20;98.90;;;;;;6212996;23;20486;-71
2022/08/29 10:59:52;;;;;;;6.28;4.20;;;29.10;99.00;;;;;;6213090;23;20004;-71
2022/08/29 11:02:33;;;;;;;6.25;4.22;;;29.00;99.30;;;;;;6210612;23;20016;-71
2022/08/29 11:05:07;;;;;;;5.85;4.53;;;28.90;99.00;;;;;;6212522;23;20005;-73
2022/08/29 11:07:40;;;;;;;4.43;3.88;;;28.90;99.60;;;;;;6212620;23;20011;-73
2022/08/29 11:10:16;;;;;;;6.93;4.22;;;28.90;99.70;;;;;;6213271;23;20007;-73
2022/08/29 11:12:45;;;;;;;5.47;4.30;;;28.90;99.70;;;;;;6210790;23;20008;-73
2022/08/29 11:15:32;;;;;;;11.43;4.60;;;28.90;99.40;;;;;;6213137;23;20107;-73
2022/08/29 11:18:08;;;;;;;6.28;4.80;;;28.90;99.20;;;;;;6211074;23;20051;-74
2022/08/29 11:20:41;;;;;;;8.70;4.60;;;28.80;99.30;;;;;;6212735;23;20007;-73
2022/08/29 11:23:18;;;;;;;4.82;4.00;;;28.80;99.70;;;;;;6212513;23;20434;-76
2022/08/29 11:25:44;;;;;;;8.65;5.40;;;28.80;99.40;;;;;;6212040;23;20095;-76
2022/08/29 11:28:21;;;;;;;6.68;3.92;;;28.80;99.90;;;;;;6213517;23;20009;-74
2022/08/29 11:30:58;;;;;;;10.98;4.85;;;28.80;99.90;;;;;;6216079;23;20000;-75
2022/08/29 11:33:44;;;;;;;7.85;4.43;;;28.70;99.90;;;;;;6212614;23;20008;-72
2022/08/29 11:36:26;;;;;;;21.92;4.72;;;28.70;99.90;;;;;;6213206;23;20000;-73
2022/08/29 11:39:17;;;;;;;20.30;5.07;;;28.60;99.90;;;;;;6211997;23;20031;-73
2022/08/29 11:41:49;;;;;;;11.18;4.68;;;28.40;99.90;;;;;;6214971;23;20040;-74
2022/08/29 11:44:30;;;;;;;;;;;28.10;99.90;;;;;;6212974;23;20011;-72
2022/08/29 11:46:56;;;;;;;10.43;4.88;;;27.90;99.90;;;;;;6212979;23;20231;-73
2022/08/29 11:49:40;;;;;;;7.90;5.20;;;27.70;99.90;;;;;;6212676;23;20001;-73
2022/08/29 11:52:11;;;;;;;10.40;5.40;;;27.50;99.90;;;;;;6212839;23;20001;-73
2022/08/29 11:54:38;;;;;;;14.53;5.63;;;27.40;99.90;;;;;;6212701;23;20364;-72
2022/08/29 11:57:04;;;;;;;11.82;5.70;;;27.40;99.90;;;;;;6212095;23;20055;-73
2022/08/29 11:59:48;;;;;;;7.18;4.80;;;27.40;99.90;;;;;;6212587;23;20008;-72
2022/08/29 12:02:29;;;;;;;7.47;4.82;;;27.50;99.90;;;;;;6212384;23;20001;-72
2022/08/29 12:05:03;;;;;;;6.82;5.38;;;27.60;99.90;;;;;;6211586;23;20135;-73
2022/08/29 12:07:40;;;;;;;5.45;4.88;;;27.80;99.90;;;;;;6212862;23;20005;-72
2022/08/29 12:10:27;;;;;;;7.18;5.05;;;28.00;99.90;;;;;;6214524;23;20058;-73
2022/08/29 12:12:58;;;;;;;6.55;4.93;;;28.20;99.90;;;;;;6213861;23;20001;-73
2022/08/29 12:15:33;;;;;;;6.67;4.77;;;28.40;99.90;;;;;;6213031;23;20009;-73
2022/08/29 12:18:00;;;;;;;5.47;4.68;;;28.70;99.90;;;;;;6214095;23;20012;-71
2022/08/29 12:20:29;;;;;;;5.85;4.43;;;28.80;99.90;;;;;;6213996;23;20244;-71
2022/08/29 12:22:58;;;;;;;5.75;4.35;;;29.10;99.90;;;;;;6214084;23;20007;-73
2022/08/29 12:25:26;;;;;;;7.35;4.30;;;29.50;99.90;;;;;;6214430;23;20429;-71
2022/08/29 12:28:01;;;;;;;5.55;4.53;;;30.10;99.90;;;;;;6214056;23;20004;-72
2022/08/29 12:30:33;;;;;;;5.63;4.35;;;30.60;99.90;;;;;;6214652;23;20428;-72
2022/08/29 12:33:19;;;;;;;6.82;4.10;;;30.90;99.90;;;;;;6213646;23;19997;-72
2022/08/29 12:36:08;;;;;;;5.97;3.17;;;31.60;99.90;;;;;;6187459;23;20043;-72
2022/08/29 12:38:54;;;;;;;5.40;3.08;;;32.70;97.40;;;;;;6197795;23;20066;-72
2022/08/29 12:41:25;;;;;;;3.63;3.05;;;33.50;96.40;;;;;;6214315;23;20439;-72
2022/08/29 12:43:55;;;;;;;3.60;2.30;;;34.40;95.30;;;;;;6214083;23;20012;-72
2022/08/29 12:46:30;;;;;;;5.88;2.60;;;35.00;93.60;;;;;;6212812;23;20016;-72
2022/08/29 12:49:21;;;;;;;3.70;2.50;;;35.40;92.40;;;;;;6212200;23;20332;-72
2022/08/29 12:51:56;;;;;;;5.20;2.90;;;36.10;91.30;;;;;;6214368;23;20047;-72
2022/08/29 12:54:37;;;;;;;8.95;3.13;;;36.80;90.10;;;;;;6213574;23;20232;-72
2022/08/29 12:57:08;;;;;;;3.58;3.00;;;37.60;90.00;;;;;;6214102;23;20391;-72
2022/08/29 12:59:34;;;;;;;6.57;2.88;;;38.40;89.10;;;;;;6214177;23;20083;-72
2022/08/29 13:02:00;;;;;;;5.72;2.25;;;38.80;86.10;;;;;;6214343;23;20032;-74
2022/08/29 13:04:32;;;;;;;5.03;2.10;;;39.00;86.60;;;;;;6213866;23;20294;-72